createdAt,value
2019-05-07T00:02:03.024Z,99.90
2019-05-07T00:04:33.362Z,99.90
2019-05-07T00:07:04.236Z,99.90
2019-05-07T00:09:34.409Z,99.90
2019-05-07T00:12:05.159Z,99.90
2019-05-07T00:14:35.505Z,99.90
2019-05-07T00:17:09.131Z,99.90
2019-05-07T00:19:38.561Z,99.90
2019-05-07T00:22:08.532Z,99.90
2019-05-07T00:24:38.158Z,99.90
2019-05-07T00:27:08.334Z,99.90
2019-05-07T00:29:38.177Z,99.90
2019-05-07T00:32:08.219Z,99.90
2019-05-07T00:34:57.111Z,99.90
2019-05-07T00:37:35.804Z,99.90
2019-05-07T00:40:24.865Z,99.90
2019-05-07T00:43:07.119Z,99.90
2019-05-07T00:46:04.936Z,99.90
2019-05-07T00:48:35.343Z,99.90
2019-05-07T00:51:27.365Z,99.90
2019-05-07T00:54:02.686Z,99.90
2019-05-07T00:56:33.209Z,99.90
2019-05-07T00:59:06.329Z,99.90
2019-05-07T01:01:36.660Z,99.90
2019-05-07T01:04:06.555Z,99.90
2019-05-07T01:06:36.579Z,99.90
2019-05-07T01:09:08.395Z,99.90
2019-05-07T01:11:38.604Z,99.90
2019-05-07T01:14:08.611Z,99.90
2019-05-07T01:16:42.069Z,99.90
2019-05-07T01:19:12.674Z,99.90
2019-05-07T01:21:43.227Z,99.90
2019-05-07T01:24:13.020Z,99.90
2019-05-07T01:26:42.716Z,99.90
2019-05-07T01:29:12.904Z,99.90
2019-05-07T01:31:55.785Z,99.90
2019-05-07T01:34:34.175Z,99.90
2019-05-07T01:37:04.553Z,99.90
2019-05-07T01:39:34.480Z,99.90
2019-05-07T01:42:04.228Z,99.90
2019-05-07T01:44:34.159Z,99.90
2019-05-07T01:47:03.734Z,99.90
2019-05-07T01:49:33.972Z,99.90
2019-05-07T01:52:03.880Z,99.90
2019-05-07T01:54:33.706Z,99.90
2019-05-07T01:57:03.844Z,99.90
2019-05-07T01:59:33.609Z,99.90
2019-05-07T02:02:12.141Z,99.90
2019-05-07T02:04:52.200Z,99.90
2019-05-07T02:07:39.333Z,99.90
2019-05-07T02:10:25.347Z,99.90
2019-05-07T02:12:55.585Z,99.90
2019-05-07T02:15:25.080Z,99.90
2019-05-07T02:17:54.816Z,99.90
2019-05-07T02:20:24.292Z,99.90
2019-05-07T02:22:54.226Z,99.90
2019-05-07T02:25:23.535Z,99.90
2019-05-07T02:27:53.487Z,99.90
2019-05-07T02:30:24.057Z,99.90
2019-05-07T02:32:54.239Z,99.90
2019-05-07T02:35:24.282Z,99.90
2019-05-07T02:38:23.041Z,99.90
2019-05-07T02:40:57.970Z,99.90
2019-05-07T02:43:27.518Z,99.90
2019-05-07T02:46:21.222Z,99.90
2019-05-07T02:48:45.090Z,99.90
2019-05-07T02:51:33.836Z,99.90
2019-05-07T02:54:17.289Z,99.90
2019-05-07T02:56:46.931Z,99.90
2019-05-07T02:59:17.100Z,99.90
2019-05-07T03:01:48.179Z,99.90
2019-05-07T03:04:17.819Z,99.90
2019-05-07T03:06:48.043Z,99.90
2019-05-07T03:09:17.558Z,99.90
2019-05-07T03:11:47.115Z,99.90
2019-05-07T03:14:17.030Z,99.90
2019-05-07T03:16:49.474Z,99.90
2019-05-07T03:19:18.120Z,99.90
2019-05-07T03:21:55.771Z,99.90
2019-05-07T03:24:35.187Z,99.90
2019-05-07T03:27:05.018Z,99.90
2019-05-07T03:29:35.858Z,99.90
2019-05-07T03:32:39.970Z,99.90
2019-05-07T03:35:37.054Z,99.90
2019-05-07T03:38:06.581Z,99.90
2019-05-07T03:40:37.355Z,99.90
2019-05-07T03:43:07.016Z,99.90
2019-05-07T03:46:04.784Z,99.90
2019-05-07T03:48:35.780Z,99.90
2019-05-07T03:51:05.390Z,99.90
2019-05-07T03:53:35.669Z,99.90
2019-05-07T03:56:05.678Z,99.90
2019-05-07T03:58:35.408Z,99.90
2019-05-07T04:01:06.146Z,99.90
2019-05-07T04:03:36.149Z,99.90
2019-05-07T04:06:06.455Z,99.90
2019-05-07T04:08:36.810Z,99.90
2019-05-07T04:11:06.896Z,99.90
2019-05-07T04:13:36.698Z,99.90
2019-05-07T04:16:07.826Z,99.90
2019-05-07T04:18:37.485Z,99.90
2019-05-07T04:21:07.435Z,99.90
2019-05-07T04:23:37.306Z,99.90
2019-05-07T04:29:06.016Z,99.90
2019-05-07T04:31:43.618Z,99.90
2019-05-07T04:34:23.715Z,99.90
2019-05-07T04:36:53.709Z,99.90
2019-05-07T04:39:23.402Z,99.90
2019-05-07T04:41:53.334Z,99.90
2019-05-07T04:44:23.692Z,99.90
2019-05-07T04:46:54.797Z,99.90
2019-05-07T04:49:24.956Z,99.90
2019-05-07T04:52:04.176Z,99.90
2019-05-07T04:54:34.161Z,99.90
2019-05-07T04:57:03.983Z,99.90
2019-05-07T04:59:33.857Z,99.90
2019-05-07T05:02:13.471Z,99.90
2019-05-07T05:04:43.938Z,99.90
2019-05-07T05:07:14.181Z,99.90
2019-05-07T05:09:44.425Z,99.90
2019-05-07T05:12:14.710Z,99.90
2019-05-07T05:14:44.644Z,99.90
2019-05-07T05:17:16.030Z,99.90
2019-05-07T05:19:46.862Z,99.90
2019-05-07T05:22:42.357Z,99.90
2019-05-07T05:25:26.652Z,99.90
2019-05-07T05:27:56.667Z,99.90
2019-05-07T05:30:35.638Z,99.90
2019-05-07T05:33:05.551Z,99.90
2019-05-07T05:35:35.674Z,99.90
2019-05-07T05:38:05.840Z,99.90
2019-05-07T05:40:39.534Z,99.90
2019-05-07T05:43:28.133Z,99.90
2019-05-07T05:45:59.900Z,99.90
2019-05-07T05:48:30.155Z,99.90
2019-05-07T05:51:06.408Z,99.90
2019-05-07T05:53:58.770Z,99.90
2019-05-07T05:56:47.218Z,99.90
2019-05-07T05:59:32.441Z,99.90
2019-05-07T06:02:32.218Z,99.90
2019-05-07T06:05:34.221Z,99.90
2019-05-07T06:08:18.291Z,99.90
2019-05-07T06:11:03.826Z,99.90
2019-05-07T06:14:02.225Z,99.90
2019-05-07T06:16:36.678Z,99.90
2019-05-07T06:19:27.898Z,99.90
2019-05-07T06:22:16.854Z,99.90
2019-05-07T06:25:02.302Z,99.90
2019-05-07T06:27:32.498Z,99.90
2019-05-07T06:30:05.462Z,99.90
2019-05-07T06:32:34.766Z,99.90
2019-05-07T06:35:04.129Z,99.90
2019-05-07T06:37:33.573Z,99.90
2019-05-07T06:40:20.394Z,99.90
2019-05-07T06:43:05.223Z,99.90
2019-05-07T06:45:38.958Z,99.90
2019-05-07T06:48:08.379Z,99.90
2019-05-07T06:50:57.275Z,99.90
2019-05-07T06:53:34.592Z,99.90
2019-05-07T06:56:04.976Z,99.90
2019-05-07T06:58:46.864Z,99.90
2019-05-07T07:01:52.958Z,99.90
2019-05-07T07:04:25.764Z,99.90
2019-05-07T07:07:33.873Z,99.90
2019-05-07T07:10:12.507Z,99.90
2019-05-07T07:12:57.148Z,99.90
2019-05-07T07:15:31.941Z,99.90
2019-05-07T07:21:45.091Z,99.90
2019-05-07T07:24:15.642Z,99.90
2019-05-07T07:26:46.517Z,99.90
2019-05-07T07:29:18.464Z,99.90
2019-05-07T07:31:54.643Z,99.90
2019-05-07T07:34:26.279Z,99.90
2019-05-07T07:37:09.790Z,99.90
2019-05-07T07:39:44.304Z,99.90
2019-05-07T07:42:14.321Z,99.90
2019-05-07T07:44:54.548Z,99.90
2019-05-07T07:47:23.993Z,99.90
2019-05-07T07:49:54.011Z,99.90
2019-05-07T07:52:24.233Z,99.90
2019-05-07T07:54:56.114Z,99.90
2019-05-07T07:57:53.479Z,99.90
2019-05-07T08:00:42.895Z,99.90
2019-05-07T08:03:16.253Z,99.90
2019-05-07T08:05:46.146Z,99.90
2019-05-07T08:08:16.383Z,99.90
2019-05-07T08:10:46.423Z,99.90
2019-05-07T08:13:16.876Z,99.90
2019-05-07T08:15:47.096Z,98.70
2019-05-07T08:18:18.823Z,98.50
2019-05-07T08:20:48.642Z,97.30
2019-05-07T08:23:18.338Z,97.90
2019-05-07T08:25:48.515Z,97.80
2019-05-07T08:28:23.151Z,96.90
2019-05-07T08:31:02.876Z,95.80
2019-05-07T08:33:36.055Z,94.90
2019-05-07T08:36:11.987Z,94.00
2019-05-07T08:39:08.639Z,91.80
2019-05-07T08:41:38.499Z,91.10
2019-05-07T08:44:15.431Z,90.70
2019-05-07T08:47:12.144Z,87.90
2019-05-07T08:49:49.082Z,82.10
2019-05-07T08:52:20.332Z,79.80
2019-05-07T08:54:51.852Z,81.10
2019-05-07T08:57:22.935Z,78.90
2019-05-07T09:00:00.559Z,80.20
2019-05-07T09:02:24.424Z,80.00
2019-05-07T09:04:54.127Z,81.40
2019-05-07T09:07:24.011Z,81.30
2019-05-07T09:09:55.603Z,77.90
2019-05-07T09:12:25.758Z,75.60
2019-05-07T09:14:55.790Z,75.20
2019-05-07T09:17:26.331Z,78.00
2019-05-07T09:19:56.650Z,77.10
2019-05-07T09:22:26.998Z,76.10
2019-05-07T09:24:57.919Z,76.10
2019-05-07T09:27:47.030Z,75.40
2019-05-07T09:30:28.687Z,76.40
2019-05-07T09:33:18.097Z,76.70
2019-05-07T09:35:49.918Z,77.50
2019-05-07T09:38:19.473Z,76.40
2019-05-07T09:40:49.174Z,78.90
2019-05-07T09:43:22.008Z,72.70
2019-05-07T09:45:52.356Z,73.30
2019-05-07T09:48:22.215Z,73.90
2019-05-07T09:50:53.029Z,73.90
2019-05-07T09:53:23.504Z,74.50
2019-05-07T09:55:53.568Z,77.70
2019-05-07T09:58:35.662Z,74.50
2019-05-07T10:01:02.102Z,73.40
2019-05-07T10:03:36.532Z,73.80
2019-05-07T10:06:15.867Z,74.80
2019-05-07T10:08:46.103Z,73.70
2019-05-07T10:11:49.483Z,75.50
2019-05-07T10:14:18.292Z,73.90
2019-05-07T10:17:37.860Z,71.60
2019-05-07T10:20:18.273Z,72.80
2019-05-07T10:22:42.915Z,72.10
2019-05-07T10:25:14.762Z,72.80
2019-05-07T10:30:48.013Z,73.60
2019-05-07T10:33:47.843Z,72.80
2019-05-07T10:36:18.397Z,74.40
2019-05-07T10:38:48.872Z,73.90
2019-05-07T10:41:22.373Z,73.10
2019-05-07T10:43:52.680Z,74.90
2019-05-07T10:47:05.691Z,72.60
2019-05-07T10:49:49.045Z,72.30
2019-05-07T10:52:18.404Z,72.80
2019-05-07T10:54:57.590Z,71.10
2019-05-07T10:57:22.312Z,70.70
2019-05-07T10:59:52.405Z,71.80
2019-05-07T11:02:27.886Z,72.20
2019-05-07T11:04:58.993Z,72.00
2019-05-07T11:07:29.391Z,71.30
2019-05-07T11:10:01.806Z,73.50
2019-05-07T11:12:31.955Z,75.60
2019-05-07T11:15:02.275Z,74.70
2019-05-07T11:17:55.893Z,75.10
2019-05-07T11:20:25.323Z,73.80
2019-05-07T11:22:54.781Z,74.10
2019-05-07T11:25:24.564Z,73.20
2019-05-07T11:27:54.276Z,72.20
2019-05-07T11:30:23.961Z,72.00
2019-05-07T11:32:53.645Z,72.20
2019-05-07T11:35:23.398Z,73.00
2019-05-07T11:37:53.019Z,72.80
2019-05-07T11:40:24.470Z,71.80
2019-05-07T11:43:13.072Z,73.20
2019-05-07T11:46:14.357Z,74.30
2019-05-07T11:49:05.580Z,72.60
2019-05-07T11:51:42.499Z,73.30
2019-05-07T11:54:12.945Z,73.80
2019-05-07T11:56:42.636Z,74.00
2019-05-07T11:59:13.341Z,73.70
2019-05-07T12:01:48.007Z,73.30
2019-05-07T12:04:18.299Z,74.00
2019-05-07T12:06:48.114Z,74.30
2019-05-07T12:09:17.427Z,74.30
2019-05-07T12:11:46.992Z,72.70
2019-05-07T12:14:27.917Z,73.20
2019-05-07T12:16:48.945Z,74.10
2019-05-07T12:19:18.388Z,73.90
2019-05-07T12:21:48.397Z,73.60
2019-05-07T12:24:17.759Z,72.50
2019-05-07T12:26:47.654Z,72.40
2019-05-07T12:29:18.185Z,73.50
2019-05-07T12:32:05.911Z,71.00
2019-05-07T12:34:42.322Z,71.00
2019-05-07T12:37:12.273Z,71.60
2019-05-07T12:39:42.353Z,69.20
2019-05-07T12:42:12.421Z,69.80
2019-05-07T12:44:48.062Z,69.60
2019-05-07T12:47:17.698Z,70.60
2019-05-07T12:49:47.765Z,71.80
2019-05-07T12:52:39.708Z,70.00
2019-05-07T12:55:29.529Z,68.70
2019-05-07T12:57:59.222Z,67.60
2019-05-07T13:00:46.865Z,67.60
2019-05-07T13:03:25.217Z,68.00
2019-05-07T13:05:54.664Z,69.60
2019-05-07T13:08:24.138Z,70.20
2019-05-07T13:10:53.721Z,68.20
2019-05-07T13:13:23.373Z,69.50
2019-05-07T13:15:52.739Z,67.90
2019-05-07T13:18:22.634Z,69.20
2019-05-07T13:20:53.896Z,66.30
2019-05-07T13:23:23.679Z,68.30
2019-05-07T13:25:53.784Z,70.60
2019-05-07T13:28:23.856Z,69.70
2019-05-07T13:30:54.134Z,69.40
2019-05-07T13:33:26.651Z,72.40
2019-05-07T13:35:55.974Z,70.10
2019-05-07T13:38:51.745Z,69.00
2019-05-07T13:41:39.670Z,69.40
2019-05-07T13:44:26.933Z,71.10
2019-05-07T13:47:15.927Z,70.20
2019-05-07T13:49:45.878Z,70.00
2019-05-07T13:52:16.145Z,69.90
2019-05-07T13:54:46.097Z,70.00
2019-05-07T13:57:15.400Z,70.30
2019-05-07T13:59:45.261Z,70.60
2019-05-07T14:02:16.737Z,69.40
2019-05-07T14:04:46.615Z,67.40
2019-05-07T14:07:16.638Z,68.50
2019-05-07T14:09:46.248Z,68.50
2019-05-07T14:12:16.265Z,69.00
2019-05-07T14:14:46.082Z,69.30
2019-05-07T14:17:15.947Z,71.20
2019-05-07T14:19:46.255Z,70.00
2019-05-07T14:22:19.009Z,67.70
2019-05-07T14:24:47.729Z,69.70
2019-05-07T14:27:17.345Z,69.10
2019-05-07T14:29:46.989Z,69.50
2019-05-07T14:32:29.599Z,68.10
2019-05-07T14:35:22.700Z,67.20
2019-05-07T14:37:59.433Z,69.60
2019-05-07T14:40:29.366Z,69.50
2019-05-07T14:43:06.986Z,69.90
2019-05-07T14:45:38.056Z,69.00
2019-05-07T14:48:07.415Z,69.00
2019-05-07T14:50:38.310Z,67.70
2019-05-07T14:53:07.875Z,68.60
2019-05-07T14:55:37.399Z,68.00
2019-05-07T14:58:07.246Z,68.90
2019-05-07T15:00:36.847Z,68.80
2019-05-07T15:03:06.496Z,68.10
2019-05-07T15:05:35.700Z,67.20
2019-05-07T15:08:10.479Z,68.00
2019-05-07T15:10:36.768Z,67.80
2019-05-07T15:13:06.384Z,67.20
2019-05-07T15:15:36.304Z,69.40
2019-05-07T15:18:34.037Z,65.80
2019-05-07T15:21:03.932Z,67.20
2019-05-07T15:23:36.147Z,66.70
2019-05-07T15:26:05.938Z,65.70
2019-05-07T15:28:36.649Z,66.60
2019-05-07T15:31:12.830Z,66.60
2019-05-07T15:33:42.950Z,67.50
2019-05-07T15:36:12.413Z,67.70
2019-05-07T15:38:42.898Z,67.70
2019-05-07T15:41:12.754Z,67.70
2019-05-07T15:43:45.815Z,67.20
2019-05-07T15:46:14.525Z,67.00
2019-05-07T15:48:44.347Z,67.60
2019-05-07T15:51:16.927Z,66.60
2019-05-07T15:53:51.889Z,66.90
2019-05-07T15:56:21.874Z,65.20
2019-05-07T15:58:51.822Z,65.50
2019-05-07T16:01:22.220Z,65.70
2019-05-07T16:03:54.978Z,65.20
2019-05-07T16:06:26.528Z,64.80
2019-05-07T16:09:02.148Z,66.80
2019-05-07T16:11:32.431Z,63.60
2019-05-07T16:14:26.374Z,64.20
2019-05-07T16:17:02.548Z,63.50
2019-05-07T16:19:32.599Z,64.00
2019-05-07T16:22:07.680Z,62.90
2019-05-07T16:24:37.722Z,63.40
2019-05-07T16:27:09.306Z,62.00
2019-05-07T16:29:39.037Z,62.70
2019-05-07T16:32:08.977Z,61.90
2019-05-07T16:34:39.051Z,61.60
2019-05-07T16:37:08.899Z,62.30
2019-05-07T16:39:39.592Z,61.20
2019-05-07T16:42:09.324Z,60.60
2019-05-07T16:44:38.858Z,61.50
2019-05-07T16:47:09.026Z,61.30
2019-05-07T16:49:38.799Z,61.40
2019-05-07T16:52:08.453Z,62.10
2019-05-07T16:54:38.032Z,62.70
2019-05-07T16:57:37.435Z,61.20
2019-05-07T17:00:15.959Z,60.20
2019-05-07T17:02:51.720Z,59.80
2019-05-07T17:05:45.251Z,58.20
2019-05-07T17:08:46.191Z,58.30
2019-05-07T17:11:22.470Z,58.70
2019-05-07T17:14:20.004Z,57.60
2019-05-07T17:17:14.919Z,57.50
2019-05-07T17:19:46.703Z,58.50
2019-05-07T17:25:47.700Z,59.10
2019-05-07T17:29:42.872Z,59.90
2019-05-07T17:31:49.274Z,61.40
2019-05-07T18:04:57.591Z,70.50
2019-05-07T18:08:48.329Z,64.30
2019-05-07T18:10:55.651Z,74.90
2019-05-07T18:13:32.651Z,76.60
2019-05-07T18:16:27.263Z,77.80
2019-05-07T18:18:57.766Z,77.90
2019-05-07T18:21:30.122Z,79.70
2019-05-07T18:24:12.695Z,80.30
2019-05-07T18:26:37.716Z,78.00
2019-05-07T18:29:19.755Z,78.60
2019-05-07T18:31:56.626Z,79.20
2019-05-07T18:34:27.144Z,79.60
2019-05-07T18:37:12.685Z,79.20
2019-05-07T18:39:47.028Z,79.50
2019-05-07T18:42:24.450Z,79.60
2019-05-07T18:45:21.751Z,78.60
2019-05-07T18:47:52.346Z,79.30
2019-05-07T18:50:25.466Z,79.20
2019-05-07T18:53:19.675Z,81.10
2019-05-07T18:57:02.474Z,81.10
2019-05-07T19:09:32.080Z,87.20
2019-05-07T19:12:45.212Z,87.20
2019-05-07T19:19:02.259Z,88.70
2019-05-07T19:21:48.273Z,89.00
2019-05-07T19:27:52.581Z,90.00
2019-05-07T19:30:32.751Z,90.10
2019-05-07T19:33:23.583Z,90.20
2019-05-07T19:36:22.447Z,90.20
2019-05-07T19:39:06.764Z,90.20
2019-05-07T19:41:38.266Z,90.40
2019-05-07T19:47:52.371Z,90.80
2019-05-07T19:50:25.489Z,91.30
2019-05-07T19:53:21.322Z,91.40
2019-05-07T19:59:49.271Z,91.30
2019-05-07T20:03:05.684Z,91.60
2019-05-07T20:06:02.458Z,91.90
2019-05-07T20:08:35.194Z,91.80
2019-05-07T20:11:42.379Z,92.10
2019-05-07T20:17:02.644Z,92.50
2019-05-07T20:19:33.605Z,92.50
2019-05-07T20:22:04.156Z,92.50
2019-05-07T20:24:34.244Z,92.50
2019-05-07T20:27:04.542Z,92.50
2019-05-07T20:29:37.608Z,92.90
2019-05-07T20:32:11.162Z,93.80
2019-05-07T20:34:46.826Z,94.00
2019-05-07T20:37:22.017Z,94.10
2019-05-07T20:39:56.605Z,94.10
2019-05-07T20:42:32.769Z,94.20
2019-05-07T20:45:12.099Z,94.30
2019-05-07T20:47:42.095Z,93.90
2019-05-07T20:50:22.321Z,93.90
2019-05-07T20:52:55.658Z,94.20
2019-05-07T20:55:44.289Z,94.60
2019-05-07T20:58:14.553Z,94.90
2019-05-07T21:00:44.768Z,95.30
2019-05-07T21:03:23.861Z,95.20
2019-05-07T21:05:57.146Z,94.90
2019-05-07T21:08:32.027Z,94.90
2019-05-07T21:11:02.587Z,94.70
2019-05-07T21:13:41.946Z,95.40
2019-05-07T21:16:12.669Z,95.80
2019-05-07T21:18:43.910Z,95.60
2019-05-07T21:21:14.318Z,95.40
2019-05-07T21:23:44.776Z,95.40
2019-05-07T21:26:15.792Z,95.40
2019-05-07T21:28:47.798Z,95.70
2019-05-07T21:31:24.299Z,96.20
2019-05-07T21:36:52.476Z,97.00
2019-05-07T21:39:22.965Z,96.70
2019-05-07T21:41:54.051Z,97.40
2019-05-07T21:44:32.565Z,97.70
2019-05-07T21:47:05.147Z,97.90
2019-05-07T21:49:44.695Z,97.00
2019-05-07T21:52:17.227Z,97.00
2019-05-07T21:55:06.293Z,97.10
2019-05-07T21:57:55.607Z,97.30
2019-05-07T22:00:48.806Z,97.70
2019-05-07T22:03:19.069Z,98.10
2019-05-07T22:05:51.942Z,97.80
2019-05-07T22:08:22.796Z,97.60
2019-05-07T22:10:52.760Z,97.70
2019-05-07T22:13:23.053Z,98.30
2019-05-07T22:15:55.147Z,98.30
2019-05-07T22:18:26.801Z,98.30
2019-05-07T22:20:57.350Z,99.50
2019-05-07T22:23:42.718Z,99.90
2019-05-07T22:26:19.214Z,99.90
2019-05-07T22:28:38.901Z,99.90
2019-05-07T22:31:34.040Z,99.80
2019-05-07T22:34:28.553Z,99.80
2019-05-07T22:36:58.871Z,99.90
2019-05-07T22:39:42.002Z,99.90
2019-05-07T22:42:12.061Z,99.90
2019-05-07T22:44:46.052Z,99.90
2019-05-07T22:47:22.788Z,99.90
2019-05-07T22:49:53.578Z,99.90
2019-05-07T22:52:27.353Z,99.90
2019-05-07T22:54:59.768Z,99.90
2019-05-07T22:57:52.580Z,99.90
2019-05-07T23:00:32.109Z,99.90
2019-05-07T23:03:02.897Z,99.90
2019-05-07T23:05:33.113Z,99.90
2019-05-07T23:08:05.460Z,99.90
2019-05-07T23:10:35.643Z,99.90
2019-05-07T23:13:09.179Z,99.90
2019-05-07T23:15:53.862Z,99.90
2019-05-07T23:18:26.699Z,99.90
2019-05-07T23:20:57.372Z,99.90
2019-05-07T23:23:32.555Z,99.90
2019-05-07T23:26:14.277Z,99.90
2019-05-07T23:28:42.940Z,99.90
2019-05-07T23:31:18.360Z,99.90
2019-05-07T23:33:52.269Z,99.90
2019-05-07T23:36:23.761Z,99.90
2019-05-07T23:38:53.708Z,99.90
2019-05-07T23:41:32.988Z,99.90
2019-05-07T23:44:22.721Z,99.90
2019-05-07T23:47:02.620Z,99.90
2019-05-07T23:49:37.742Z,99.90
2019-05-07T23:52:08.804Z,99.90
2019-05-07T23:54:39.466Z,99.90
2019-05-07T23:57:14.941Z,99.90
2019-05-07T23:59:48.994Z,99.90
